sensor_id;sensor_type;location;lat;lon;timestamp;P1;durP1;ratioP1;P2;durP2;ratioP2
3463;SDS011;3551;41.578;24.706;2022-10-23T07:31:44;9.20;;;3.00;;
3463;SDS011;3551;41.578;24.706;2022-10-23T07:34:11;13.90;;;3.27;;
3463;SDS011;3551;41.578;24.706;2022-10-23T07:36:38;5.50;;;1.90;;
3463;SDS011;3551;41.578;24.706;2022-10-23T07:39:05;14.47;;;2.43;;
3463;SDS011;3551;41.578;24.706;2022-10-23T07:41:32;13.03;;;2.63;;
3463;SDS011;3551;41.578;24.706;2022-10-23T07:44:00;8.70;;;3.10;;
3463;SDS011;3551;41.578;24.706;2022-10-23T07:46:27;12.50;;;3.40;;
3463;SDS011;3551;41.578;24.706;2022-10-23T07:48:56;8.80;;;3.43;;
3463;SDS011;3551;41.578;24.706;2022-10-23T07:51:23;8.90;;;2.53;;
3463;SDS011;3551;41.578;24.706;2022-10-23T07:53:50;7.37;;;1.90;;
3463;SDS011;3551;41.578;24.706;2022-10-23T07:56:19;8.07;;;3.10;;
3463;SDS011;3551;41.578;24.706;2022-10-23T07:58:50;6.03;;;2.67;;
3463;SDS011;3551;41.578;24.706;2022-10-23T08:01:19;6.50;;;2.57;;
3463;SDS011;3551;41.578;24.706;2022-10-23T08:03:51;20.03;;;3.70;;
3463;SDS011;3551;41.578;24.706;2022-10-23T08:06:19;9.07;;;2.77;;
3463;SDS011;3551;41.578;24.706;2022-10-23T08:08:46;6.30;;;2.37;;
3463;SDS011;3551;41.578;24.706;2022-10-23T08:11:14;12.43;;;2.97;;
3463;SDS011;3551;41.578;24.706;2022-10-23T08:13:44;13.47;;;2.70;;
3463;SDS011;3551;41.578;24.706;2022-10-23T08:16:11;7.00;;;2.33;;
3463;SDS011;3551;41.578;24.706;2022-10-23T08:18:38;6.67;;;2.13;;
3463;SDS011;3551;41.578;24.706;2022-10-23T08:21:07;4.50;;;1.90;;
3463;SDS011;3551;41.578;24.706;2022-10-23T08:23:36;7.97;;;2.50;;
3463;SDS011;3551;41.578;24.706;2022-10-23T08:26:04;8.20;;;2.20;;
3463;SDS011;3551;41.578;24.706;2022-10-23T08:28:32;5.30;;;2.00;;
3463;SDS011;3551;41.578;24.706;2022-10-23T08:31:05;6.13;;;2.00;;
3463;SDS011;3551;41.578;24.706;2022-10-23T08:33:33;8.07;;;2.20;;
3463;SDS011;3551;41.578;24.706;2022-10-23T08:36:00;4.67;;;2.03;;
3463;SDS011;3551;41.578;24.706;2022-10-23T08:38:28;7.70;;;2.07;;
3463;SDS011;3551;41.578;24.706;2022-10-23T08:40:56;8.30;;;2.07;;
3463;SDS011;3551;41.578;24.706;2022-10-23T08:43:29;4.77;;;1.60;;
3463;SDS011;3551;41.578;24.706;2022-10-23T08:46:02;6.67;;;1.90;;
3463;SDS011;3551;41.578;24.706;2022-10-23T08:48:36;5.57;;;3.20;;
3463;SDS011;3551;41.578;24.706;2022-10-23T08:53:55;8.00;;;2.10;;
3463;SDS011;3551;41.578;24.706;2022-10-23T08:56:30;6.83;;;2.27;;
3463;SDS011;3551;41.578;24.706;2022-10-23T08:59:05;9.60;;;2.00;;
3463;SDS011;3551;41.578;24.706;2022-10-23T09:01:45;2.97;;;1.80;;
3463;SDS011;3551;41.578;24.706;2022-10-23T09:04:15;8.50;;;2.50;;
3463;SDS011;3551;41.578;24.706;2022-10-23T09:06:45;6.93;;;2.00;;
3463;SDS011;3551;41.578;24.706;2022-10-23T09:09:23;5.40;;;2.00;;
3463;SDS011;3551;41.578;24.706;2022-10-23T09:12:04;4.27;;;1.90;;
3463;SDS011;3551;41.578;24.706;2022-10-23T09:17:28;6.23;;;1.63;;
3463;SDS011;3551;41.578;24.706;2022-10-23T09:19:59;7.83;;;1.87;;
3463;SDS011;3551;41.578;24.706;2022-10-23T09:22:31;14.00;;;2.03;;
3463;SDS011;3551;41.578;24.706;2022-10-23T09:24:58;8.27;;;2.37;;
3463;SDS011;3551;41.578;24.706;2022-10-23T09:27:27;4.53;;;1.90;;
3463;SDS011;3551;41.578;24.706;2022-10-23T09:29:54;5.97;;;1.70;;
3463;SDS011;3551;41.578;24.706;2022-10-23T09:32:33;6.33;;;1.90;;
3463;SDS011;3551;41.578;24.706;2022-10-23T09:35:01;10.47;;;1.93;;
3463;SDS011;3551;41.578;24.706;2022-10-23T09:37:30;6.13;;;1.77;;
3463;SDS011;3551;41.578;24.706;2022-10-23T09:40:14;5.30;;;1.60;;
3463;SDS011;3551;41.578;24.706;2022-10-23T09:42:53;8.20;;;1.90;;
3463;SDS011;3551;41.578;24.706;2022-10-23T09:45:26;8.47;;;2.03;;
3463;SDS011;3551;41.578;24.706;2022-10-23T09:48:02;4.00;;;1.70;;
3463;SDS011;3551;41.578;24.706;2022-10-23T09:50:30;6.10;;;1.60;;
3463;SDS011;3551;41.578;24.706;2022-10-23T09:52:57;6.03;;;1.77;;
3463;SDS011;3551;41.578;24.706;2022-10-23T09:55:24;5.07;;;1.90;;
3463;SDS011;3551;41.578;24.706;2022-10-23T09:57:55;4.87;;;1.70;;
3463;SDS011;3551;41.578;24.706;2022-10-23T10:00:25;13.30;;;1.80;;
3463;SDS011;3551;41.578;24.706;2022-10-23T10:02:54;11.03;;;2.43;;
3463;SDS011;3551;41.578;24.706;2022-10-23T10:05:23;5.43;;;1.60;;
3463;SDS011;3551;41.578;24.706;2022-10-23T10:07:55;6.27;;;1.83;;
3463;SDS011;3551;41.578;24.706;2022-10-23T10:10:26;6.63;;;1.60;;
3463;SDS011;3551;41.578;24.706;2022-10-23T10:13:02;3.43;;;1.53;;
3463;SDS011;3551;41.578;24.706;2022-10-23T10:15:46;6.70;;;1.80;;
3463;SDS011;3551;41.578;24.706;2022-10-23T10:18:20;6.40;;;1.70;;
3463;SDS011;3551;41.578;24.706;2022-10-23T10:20:59;10.90;;;1.90;;
3463;SDS011;3551;41.578;24.706;2022-10-23T10:23:42;6.23;;;1.90;;
3463;SDS011;3551;41.578;24.706;2022-10-23T10:26:17;4.73;;;1.80;;
3463;SDS011;3551;41.578;24.706;2022-10-23T10:29:01;11.10;;;2.20;;
3463;SDS011;3551;41.578;24.706;2022-10-23T10:31:38;6.17;;;1.77;;
3463;SDS011;3551;41.578;24.706;2022-10-23T10:34:17;4.77;;;1.93;;
3463;SDS011;3551;41.578;24.706;2022-10-23T10:36:51;8.27;;;2.00;;
3463;SDS011;3551;41.578;24.706;2022-10-23T10:39:23;4.37;;;2.00;;
3463;SDS011;3551;41.578;24.706;2022-10-23T10:42:06;5.60;;;2.40;;
3463;SDS011;3551;41.578;24.706;2022-10-23T10:44:47;4.10;;;1.87;;
3463;SDS011;3551;41.578;24.706;2022-10-23T10:47:25;8.47;;;2.00;;
3463;SDS011;3551;41.578;24.706;2022-10-23T10:50:01;3.93;;;1.73;;
3463;SDS011;3551;41.578;24.706;2022-10-23T10:52:36;5.80;;;2.00;;
3463;SDS011;3551;41.578;24.706;2022-10-23T10:55:15;4.20;;;1.53;;
3463;SDS011;3551;41.578;24.706;2022-10-23T10:57:49;6.20;;;1.60;;
3463;SDS011;3551;41.578;24.706;2022-10-23T11:00:22;8.73;;;2.27;;
3463;SDS011;3551;41.578;24.706;2022-10-23T11:02:51;5.50;;;1.87;;
3463;SDS011;3551;41.578;24.706;2022-10-23T11:05:25;6.63;;;1.43;;
3463;SDS011;3551;41.578;24.706;2022-10-23T11:07:58;7.53;;;3.33;;
3463;SDS011;3551;41.578;24.706;2022-10-23T11:10:29;8.77;;;2.70;;
3463;SDS011;3551;41.578;24.706;2022-10-23T11:12:58;2.90;;;1.77;;
3463;SDS011;3551;41.578;24.706;2022-10-23T11:15:27;5.50;;;1.93;;
3463;SDS011;3551;41.578;24.706;2022-10-23T11:18:02;3.70;;;1.73;;
3463;SDS011;3551;41.578;24.706;2022-10-23T11:20:44;5.50;;;1.90;;
3463;SDS011;3551;41.578;24.706;2022-10-23T11:26:31;6.60;;;1.60;;
3463;SDS011;3551;41.578;24.706;2022-10-23T11:32:10;6.13;;;2.20;;
3463;SDS011;3551;41.578;24.706;2022-10-23T11:35:02;3.63;;;1.50;;
3463;SDS011;3551;41.578;24.706;2022-10-23T11:37:55;4.20;;;1.70;;
3463;SDS011;3551;41.578;24.706;2022-10-23T11:40:24;2.27;;;1.40;;
3463;SDS011;3551;41.578;24.706;2022-10-23T11:42:51;3.07;;;1.70;;
3463;SDS011;3551;41.578;24.706;2022-10-23T11:45:29;3.10;;;2.20;;
3463;SDS011;3551;41.578;24.706;2022-10-23T11:48:00;2.87;;;1.53;;
3463;SDS011;3551;41.578;24.706;2022-10-23T11:50:29;3.83;;;1.47;;
3463;SDS011;3551;41.578;24.706;2022-10-23T11:52:59;3.10;;;1.70;;
3463;SDS011;3551;41.578;24.706;2022-10-23T11:55:31;4.70;;;2.30;;
3463;SDS011;3551;41.578;24.706;2022-10-23T11:58:07;16.00;;;9.97;;
3463;SDS011;3551;41.578;24.706;2022-10-23T12:00:51;3.17;;;2.00;;
3463;SDS011;3551;41.578;24.706;2022-10-23T12:03:23;3.00;;;1.80;;
3463;SDS011;3551;41.578;24.706;2022-10-23T12:05:58;3.13;;;2.00;;
3463;SDS011;3551;41.578;24.706;2022-10-23T12:08:30;12.20;;;4.20;;
3463;SDS011;3551;41.578;24.706;2022-10-23T12:11:00;6.07;;;1.97;;
3463;SDS011;3551;41.578;24.706;2022-10-23T12:13:28;4.30;;;1.57;;
3463;SDS011;3551;41.578;24.706;2022-10-23T12:16:10;8.43;;;2.10;;
3463;SDS011;3551;41.578;24.706;2022-10-23T12:18:46;10.10;;;3.00;;
3463;SDS011;3551;41.578;24.706;2022-10-23T12:21:16;6.43;;;2.27;;
3463;SDS011;3551;41.578;24.706;2022-10-23T12:23:49;6.20;;;1.90;;
3463;SDS011;3551;41.578;24.706;2022-10-23T12:29:33;5.70;;;2.67;;
3463;SDS011;3551;41.578;24.706;2022-10-23T12:35:17;3.90;;;1.80;;
3463;SDS011;3551;41.578;24.706;2022-10-23T12:38:00;5.17;;;2.00;;
3463;SDS011;3551;41.578;24.706;2022-10-23T12:40:38;8.10;;;2.10;;
3463;SDS011;3551;41.578;24.706;2022-10-23T12:43:15;3.30;;;1.60;;
3463;SDS011;3551;41.578;24.706;2022-10-23T12:45:48;5.93;;;2.73;;
3463;SDS011;3551;41.578;24.706;2022-10-23T12:48:17;5.17;;;2.73;;
3463;SDS011;3551;41.578;24.706;2022-10-23T12:50:48;7.27;;;2.63;;
3463;SDS011;3551;41.578;24.706;2022-10-23T12:53:17;9.37;;;4.80;;
3463;SDS011;3551;41.578;24.706;2022-10-23T12:55:46;9.40;;;6.03;;
3463;SDS011;3551;41.578;24.706;2022-10-23T12:58:17;6.33;;;2.47;;
3463;SDS011;3551;41.578;24.706;2022-10-23T13:00:49;9.83;;;4.37;;
3463;SDS011;3551;41.578;24.706;2022-10-23T13:03:16;8.20;;;4.03;;
3463;SDS011;3551;41.578;24.706;2022-10-23T13:05:45;6.10;;;2.50;;
3463;SDS011;3551;41.578;24.706;2022-10-23T13:08:14;3.77;;;2.10;;
3463;SDS011;3551;41.578;24.706;2022-10-23T13:10:41;3.23;;;1.90;;
3463;SDS011;3551;41.578;24.706;2022-10-23T13:13:09;9.40;;;2.90;;
3463;SDS011;3551;41.578;24.706;2022-10-23T13:15:39;3.33;;;2.10;;
3463;SDS011;3551;41.578;24.706;2022-10-23T13:18:08;3.70;;;2.20;;
3463;SDS011;3551;41.578;24.706;2022-10-23T13:20:40;6.33;;;2.40;;
3463;SDS011;3551;41.578;24.706;2022-10-23T13:23:09;5.30;;;2.10;;
3463;SDS011;3551;41.578;24.706;2022-10-23T13:25:50;3.30;;;2.00;;
3463;SDS011;3551;41.578;24.706;2022-10-23T13:28:23;2.87;;;1.87;;
3463;SDS011;3551;41.578;24.706;2022-10-23T13:31:05;6.87;;;2.20;;
3463;SDS011;3551;41.578;24.706;2022-10-23T13:33:48;6.23;;;2.40;;
3463;SDS011;3551;41.578;24.706;2022-10-23T13:36:19;10.77;;;2.73;;
3463;SDS011;3551;41.578;24.706;2022-10-23T13:38:58;13.17;;;3.70;;
3463;SDS011;3551;41.578;24.706;2022-10-23T13:41:29;10.53;;;2.00;;
3463;SDS011;3551;41.578;24.706;2022-10-23T13:44:01;2.97;;;1.70;;
3463;SDS011;3551;41.578;24.706;2022-10-23T13:46:28;5.07;;;1.80;;
3463;SDS011;3551;41.578;24.706;2022-10-23T13:48:56;6.57;;;2.13;;
3463;SDS011;3551;41.578;24.706;2022-10-23T13:51:23;6.07;;;2.47;;
3463;SDS011;3551;41.578;24.706;2022-10-23T13:53:53;7.07;;;2.27;;
3463;SDS011;3551;41.578;24.706;2022-10-23T13:56:21;2.97;;;1.70;;
3463;SDS011;3551;41.578;24.706;2022-10-23T13:58:51;3.87;;;1.40;;
3463;SDS011;3551;41.578;24.706;2022-10-23T14:01:19;5.30;;;1.60;;
3463;SDS011;3551;41.578;24.706;2022-10-23T14:03:48;10.67;;;2.50;;
3463;SDS011;3551;41.578;24.706;2022-10-23T14:06:15;10.20;;;2.53;;
3463;SDS011;3551;41.578;24.706;2022-10-23T14:08:43;6.90;;;2.10;;
3463;SDS011;3551;41.578;24.706;2022-10-23T14:11:10;8.73;;;1.90;;
3463;SDS011;3551;41.578;24.706;2022-10-23T14:13:39;5.20;;;2.13;;
3463;SDS011;3551;41.578;24.706;2022-10-23T14:16:08;5.90;;;1.73;;
3463;SDS011;3551;41.578;24.706;2022-10-23T14:18:38;4.03;;;2.20;;
3463;SDS011;3551;41.578;24.706;2022-10-23T14:21:06;6.33;;;1.53;;
3463;SDS011;3551;41.578;24.706;2022-10-23T14:23:34;3.10;;;1.80;;
3463;SDS011;3551;41.578;24.706;2022-10-23T14:26:02;4.10;;;1.90;;
3463;SDS011;3551;41.578;24.706;2022-10-23T14:28:29;3.00;;;1.70;;
3463;SDS011;3551;41.578;24.706;2022-10-23T14:30:56;3.17;;;1.87;;
3463;SDS011;3551;41.578;24.706;2022-10-23T14:33:25;3.50;;;1.90;;
3463;SDS011;3551;41.578;24.706;2022-10-23T14:35:52;6.47;;;2.30;;
3463;SDS011;3551;41.578;24.706;2022-10-23T14:38:19;6.27;;;2.10;;
3463;SDS011;3551;41.578;24.706;2022-10-23T14:40:46;3.30;;;2.30;;
3463;SDS011;3551;41.578;24.706;2022-10-23T14:43:12;7.07;;;2.50;;
3463;SDS011;3551;41.578;24.706;2022-10-23T14:45:40;3.90;;;2.33;;
3463;SDS011;3551;41.578;24.706;2022-10-23T14:48:06;9.70;;;2.90;;
3463;SDS011;3551;41.578;24.706;2022-10-23T14:50:36;17.43;;;2.80;;
3463;SDS011;3551;41.578;24.706;2022-10-23T14:53:07;6.30;;;4.03;;
3463;SDS011;3551;41.578;24.706;2022-10-23T14:55:34;5.10;;;3.07;;
3463;SDS011;3551;41.578;24.706;2022-10-23T14:58:01;7.00;;;2.60;;
3463;SDS011;3551;41.578;24.706;2022-10-23T15:00:28;5.70;;;3.07;;
3463;SDS011;3551;41.578;24.706;2022-10-23T15:02:55;8.93;;;3.63;;
3463;SDS011;3551;41.578;24.706;2022-10-23T15:05:22;8.00;;;3.57;;
3463;SDS011;3551;41.578;24.706;2022-10-23T15:07:51;10.33;;;4.30;;
3463;SDS011;3551;41.578;24.706;2022-10-23T15:10:18;7.60;;;5.30;;
3463;SDS011;3551;41.578;24.706;2022-10-23T15:12:44;11.13;;;6.00;;
3463;SDS011;3551;41.578;24.706;2022-10-23T15:15:12;13.07;;;6.00;;
3463;SDS011;3551;41.578;24.706;2022-10-23T15:17:39;10.83;;;6.10;;
3463;SDS011;3551;41.578;24.706;2022-10-23T15:20:06;11.80;;;6.97;;
3463;SDS011;3551;41.578;24.706;2022-10-23T15:22:34;11.80;;;6.87;;
3463;SDS011;3551;41.578;24.706;2022-10-23T15:25:02;15.80;;;8.47;;
3463;SDS011;3551;41.578;24.706;2022-10-23T15:27:30;16.20;;;8.03;;
3463;SDS011;3551;41.578;24.706;2022-10-23T15:29:57;18.20;;;9.90;;
3463;SDS011;3551;41.578;24.706;2022-10-23T15:32:24;22.57;;;10.83;;
3463;SDS011;3551;41.578;24.706;2022-10-23T15:34:50;19.93;;;10.63;;
3463;SDS011;3551;41.578;24.706;2022-10-23T15:37:19;16.77;;;10.30;;
3463;SDS011;3551;41.578;24.706;2022-10-23T15:39:45;22.00;;;8.70;;
3463;SDS011;3551;41.578;24.706;2022-10-23T15:42:14;13.10;;;8.07;;
3463;SDS011;3551;41.578;24.706;2022-10-23T15:44:43;17.67;;;9.13;;
3463;SDS011;3551;41.578;24.706;2022-10-23T15:47:10;23.37;;;7.70;;
3463;SDS011;3551;41.578;24.706;2022-10-23T15:49:37;14.67;;;7.70;;
3463;SDS011;3551;41.578;24.706;2022-10-23T15:52:04;13.70;;;7.50;;
3463;SDS011;3551;41.578;24.706;2022-10-23T15:54:33;19.07;;;10.47;;
3463;SDS011;3551;41.578;24.706;2022-10-23T15:57:00;19.23;;;9.70;;
3463;SDS011;3551;41.578;24.706;2022-10-23T15:59:29;18.70;;;10.00;;
3463;SDS011;3551;41.578;24.706;2022-10-23T16:01:57;18.67;;;9.60;;
3463;SDS011;3551;41.578;24.706;2022-10-23T16:04:24;17.87;;;10.60;;
3463;SDS011;3551;41.578;24.706;2022-10-23T16:06:52;13.60;;;9.60;;
3463;SDS011;3551;41.578;24.706;2022-10-23T16:09:19;13.33;;;9.43;;
3463;SDS011;3551;41.578;24.706;2022-10-23T16:11:46;19.23;;;10.47;;
3463;SDS011;3551;41.578;24.706;2022-10-23T16:14:14;30.23;;;15.10;;
3463;SDS011;3551;41.578;24.706;2022-10-23T16:16:43;24.90;;;14.00;;
3463;SDS011;3551;41.578;24.706;2022-10-23T16:19:10;25.20;;;15.63;;
3463;SDS011;3551;41.578;24.706;2022-10-23T16:21:37;19.80;;;13.27;;
3463;SDS011;3551;41.578;24.706;2022-10-23T16:24:05;44.67;;;18.30;;
3463;SDS011;3551;41.578;24.706;2022-10-23T16:26:34;21.10;;;14.20;;
3463;SDS011;3551;41.578;24.706;2022-10-23T16:29:02;38.37;;;20.63;;
3463;SDS011;3551;41.578;24.706;2022-10-23T16:31:30;36.40;;;19.47;;
3463;SDS011;3551;41.578;24.706;2022-10-23T16:34:00;37.03;;;20.93;;
3463;SDS011;3551;41.578;24.706;2022-10-23T16:36:29;34.10;;;19.80;;
3463;SDS011;3551;41.578;24.706;2022-10-23T16:38:55;30.43;;;17.33;;
3463;SDS011;3551;41.578;24.706;2022-10-23T16:41:22;31.00;;;16.23;;
3463;SDS011;3551;41.578;24.706;2022-10-23T16:43:49;29.70;;;16.53;;
3463;SDS011;3551;41.578;24.706;2022-10-23T16:46:17;28.60;;;17.47;;
3463;SDS011;3551;41.578;24.706;2022-10-23T16:48:45;25.60;;;15.90;;
3463;SDS011;3551;41.578;24.706;2022-10-23T16:51:15;23.77;;;16.30;;
3463;SDS011;3551;41.578;24.706;2022-10-23T16:53:44;29.33;;;17.63;;
3463;SDS011;3551;41.578;24.706;2022-10-23T16:56:12;32.83;;;18.37;;
3463;SDS011;3551;41.578;24.706;2022-10-23T16:58:41;30.43;;;17.33;;
3463;SDS011;3551;41.578;24.706;2022-10-23T17:01:09;29.00;;;17.50;;
3463;SDS011;3551;41.578;24.706;2022-10-23T17:03:38;31.57;;;18.30;;
3463;SDS011;3551;41.578;24.706;2022-10-23T17:06:07;30.07;;;17.83;;
3463;SDS011;3551;41.578;24.706;2022-10-23T17:08:36;35.93;;;19.60;;
3463;SDS011;3551;41.578;24.706;2022-10-23T17:11:04;35.97;;;21.10;;
3463;SDS011;3551;41.578;24.706;2022-10-23T17:13:32;31.50;;;18.57;;
3463;SDS011;3551;41.578;24.706;2022-10-23T17:19:41;23.67;;;13.73;;
3463;SDS011;3551;41.578;24.706;2022-10-23T17:22:09;25.93;;;13.27;;
